Terminal Aerodrome Forecast
Issued by NWS Bismarck, ND

Home | Current Version | Previous Version | Graphics & Text | Print | Product List | Glossary On
Versions: 1 2 3 4 5 6 7 8 9 10 11 12 13 14 15 16 17 18 19 20 21 22 23
000
FTUS43 KBIS 191127
TAFISN
TAF
KISN 191127Z 1912/2012 10006KT P6SM FEW005 SCT150
      TEMPO 1913/1917 1SM BR BKN005
     FM191700 10006KT P6SM SCT250
     FM200100 05003KT P6SM SCT250
     FM200300 VRB02KT P6SM SCT150 BKN220
     FM200500 30004KT P6SM VCSH BKN070 OVC100=

USA.gov is the U.S. government's official web portal to all federal, state and local government web resources and services.